Time;durP1;ratioP1;P1;durP2;ratioP2;P2;SDS_P1;SDS_P2;PMS_P1;PMS_P2;Temp;Humidity;BMP_temperature;BMP_pressure;BME280_temperature;BME280_humidity;BME280_pressure;Samples;Min_cycle;Max_cycle;Signal;HPM_P1;HPM_P2
2022/07/05 00:01:03;;;;;;;2.25;1.85;;;12.40;99.90;;;;;;5087543;28;20060;-65
2022/07/05 00:03:28;;;;;;;2.22;1.45;;;12.50;99.90;;;;;;5068321;28;20069;-65
2022/07/05 00:05:55;;;;;;;1.85;1.70;;;12.50;99.90;;;;;;5070340;28;20032;-65
2022/07/05 00:08:21;;;;;;;5.40;2.70;;;12.50;99.90;;;;;;5084209;28;20042;-65
2022/07/05 00:10:47;;;;;;;4.05;2.30;;;12.60;99.90;;;;;;5067400;28;20159;-65
2022/07/05 00:13:13;;;;;;;2.53;2.33;;;12.60;99.90;;;;;;5086637;28;20486;-65
2022/07/05 00:15:39;;;;;;;3.45;2.17;;;12.60;99.90;;;;;;5087922;28;20080;-65
2022/07/05 00:18:05;;;;;;;5.78;2.75;;;12.80;99.90;;;;;;5070214;28;20067;-65
2022/07/05 00:20:30;;;;;;;3.47;2.90;;;12.70;99.90;;;;;;5066692;28;20058;-65
2022/07/05 00:22:56;;;;;;;7.82;3.35;;;12.80;99.90;;;;;;5069139;28;20052;-65
2022/07/05 00:25:21;;;;;;;3.60;2.92;;;12.80;99.90;;;;;;5070222;28;21656;-65
2022/07/05 00:27:47;;;;;;;3.53;3.20;;;12.90;99.90;;;;;;5084597;28;20039;-65
2022/07/05 00:30:13;;;;;;;4.25;3.05;;;12.80;99.90;;;;;;5069284;28;20039;-66
2022/07/05 00:32:39;;;;;;;3.88;3.13;;;12.80;99.90;;;;;;5065557;28;20143;-65
2022/07/05 00:35:06;;;;;;;4.72;3.03;;;12.80;99.90;;;;;;5068659;28;20126;-65
2022/07/05 00:37:31;;;;;;;4.88;3.38;;;12.80;99.90;;;;;;5069178;28;20498;-65
2022/07/05 00:39:57;;;;;;;5.15;4.18;;;12.80;99.90;;;;;;5068463;28;20043;-65
2022/07/05 00:42:23;;;;;;;6.93;4.07;;;12.80;99.90;;;;;;5065501;28;20588;-65
2022/07/05 00:44:48;;;;;;;5.45;4.57;;;12.80;99.90;;;;;;5083039;28;20046;-65
2022/07/05 00:47:14;;;;;;;5.82;4.20;;;12.80;99.90;;;;;;5068034;28;20044;-65
2022/07/05 00:49:41;;;;;;;6.45;5.28;;;12.90;99.90;;;;;;5072547;28;20078;-65
2022/07/05 00:52:07;;;;;;;6.43;4.10;;;12.80;99.90;;;;;;5082033;28;20553;-65
2022/07/05 00:54:37;;;;;;;4.40;3.78;;;12.80;99.90;;;;;;5084946;28;20036;-65
2022/07/05 00:57:03;;;;;;;6.03;4.80;;;12.80;99.90;;;;;;5071133;28;20040;-65
2022/07/05 00:59:29;;;;;;;5.03;4.10;;;12.80;99.90;;;;;;5085171;28;20046;-65
2022/07/05 01:01:56;;;;;;;5.30;4.40;;;12.80;99.90;;;;;;5066594;28;20055;-65
2022/07/05 01:04:22;;;;;;;6.90;3.88;;;12.80;99.90;;;;;;5066343;28;20043;-65
2022/07/05 01:06:49;;;;;;;5.50;4.72;;;12.70;99.90;;;;;;5071242;28;20047;-65
2022/07/05 01:09:16;;;;;;;5.00;3.97;;;12.60;99.90;;;;;;5067050;28;20040;-65
2022/07/05 01:11:47;;;;;;;7.47;4.30;;;12.70;99.90;;;;;;5080817;28;20085;-65
2022/07/05 01:14:16;;;;;;;5.20;4.38;;;12.60;99.90;;;;;;5083588;28;20150;-65
2022/07/05 01:16:42;;;;;;;5.80;4.05;;;12.50;99.90;;;;;;5068889;28;20044;-65
2022/07/05 01:19:10;;;;;;;6.75;4.85;;;12.50;99.90;;;;;;5072350;28;20387;-65
2022/07/05 01:21:42;;;;;;;5.85;5.13;;;12.50;99.90;;;;;;5052395;28;20044;-65
2022/07/05 01:24:09;;;;;;;6.75;5.00;;;12.50;99.90;;;;;;5051023;28;20040;-65
2022/07/05 01:26:36;;;;;;;7.75;4.88;;;12.50;99.90;;;;;;5085822;28;20453;-65
2022/07/05 01:29:02;;;;;;;5.75;5.15;;;12.50;99.90;;;;;;5066613;28;20072;-65
2022/07/05 01:31:28;;;;;;;6.13;4.85;;;12.40;99.90;;;;;;5051092;28;20060;-65
2022/07/05 01:33:53;;;;;;;7.50;5.18;;;12.40;99.90;;;;;;5072436;28;20063;-65
2022/07/05 01:36:19;;;;;;;8.63;5.53;;;12.30;99.90;;;;;;5065013;28;20078;-65
2022/07/05 01:38:45;;;;;;;6.35;5.47;;;12.30;99.90;;;;;;5068114;28;20054;-65
2022/07/05 01:41:11;;;;;;;7.00;5.63;;;12.10;99.90;;;;;;5069385;28;20051;-65
2022/07/05 01:43:37;;;;;;;8.57;5.75;;;12.10;99.90;;;;;;5084384;28;20028;-65
2022/07/05 01:46:04;;;;;;;8.73;5.65;;;12.00;99.90;;;;;;5063049;28;20039;-65
2022/07/05 01:48:34;;;;;;;8.00;6.22;;;11.90;99.90;;;;;;5067406;28;20050;-65
2022/07/05 01:51:13;;;;;;;10.20;5.55;;;11.90;99.90;;;;;;5081867;28;20517;-65
2022/07/05 01:53:40;;;;;;;7.45;5.43;;;12.00;99.90;;;;;;5078790;28;20984;-65
2022/07/05 01:56:06;;;;;;;7.25;5.07;;;12.00;99.90;;;;;;5083184;28;20493;-65
2022/07/05 01:58:32;;;;;;;9.80;5.50;;;12.10;99.90;;;;;;5083392;28;20040;-65
2022/07/05 02:00:58;;;;;;;8.05;6.40;;;12.10;99.90;;;;;;5080175;28;20421;-65
2022/07/05 02:03:24;;;;;;;6.15;5.53;;;12.10;99.90;;;;;;5079225;28;20040;-65
2022/07/05 02:05:50;;;;;;;10.13;6.43;;;12.00;99.90;;;;;;5081210;28;20035;-65
2022/07/05 02:08:17;;;;;;;10.68;6.25;;;12.00;99.90;;;;;;5081508;28;20051;-65
2022/07/05 02:10:44;;;;;;;11.38;6.43;;;12.00;99.90;;;;;;5078029;28;20040;-65
2022/07/05 02:13:10;;;;;;;8.45;5.97;;;11.90;99.90;;;;;;5083322;28;20036;-65
2022/07/05 02:15:38;;;;;;;7.57;5.85;;;11.90;99.90;;;;;;5064738;28;20044;-65
2022/07/05 02:18:05;;;;;;;6.60;5.63;;;11.90;99.90;;;;;;5081451;28;20044;-65
2022/07/05 02:20:32;;;;;;;9.50;5.88;;;11.90;99.90;;;;;;5079280;28;20477;-65
2022/07/05 02:22:58;;;;;;;9.43;6.18;;;11.90;99.90;;;;;;5064194;28;20036;-65
2022/07/05 02:25:24;;;;;;;8.68;6.55;;;11.90;99.90;;;;;;5066212;28;20601;-65
2022/07/05 02:27:51;;;;;;;8.95;6.65;;;12.00;99.90;;;;;;5065248;28;20036;-65
2022/07/05 02:30:17;;;;;;;10.48;6.75;;;12.00;99.90;;;;;;5063558;28;20533;-65
2022/07/05 02:32:43;;;;;;;8.43;5.40;;;12.00;99.90;;;;;;5062690;28;20028;-65
2022/07/05 02:35:10;;;;;;;7.70;5.65;;;11.90;99.90;;;;;;5062392;28;20397;-65
2022/07/05 02:37:36;;;;;;;7.55;5.93;;;11.90;99.90;;;;;;5051682;28;20090;-65
2022/07/05 02:40:03;;;;;;;8.38;6.30;;;11.90;99.90;;;;;;5083968;28;20082;-65
2022/07/05 02:42:28;;;;;;;10.68;6.38;;;11.90;99.90;;;;;;5079367;28;20036;-65
2022/07/05 02:44:54;;;;;;;10.70;6.57;;;11.90;99.90;;;;;;5053360;28;20097;-65
2022/07/05 02:47:19;;;;;;;8.63;6.20;;;11.90;99.90;;;;;;5086614;28;21680;-65
2022/07/05 02:49:45;;;;;;;9.70;7.00;;;11.90;99.90;;;;;;5064894;28;20040;-65
2022/07/05 02:52:11;;;;;;;7.63;5.72;;;11.90;99.90;;;;;;5067711;28;20116;-65
2022/07/05 02:54:36;;;;;;;8.25;6.10;;;11.90;99.90;;;;;;5088293;28;20123;-65
2022/07/05 02:57:02;;;;;;;8.10;6.30;;;11.90;99.90;;;;;;5083782;28;20036;-65
2022/07/05 02:59:29;;;;;;;8.95;5.45;;;11.90;99.90;;;;;;5082484;28;20040;-65
2022/07/05 03:01:55;;;;;;;8.13;6.18;;;11.90;99.90;;;;;;5073164;28;20067;-65
2022/07/05 03:04:21;;;;;;;10.45;6.85;;;11.80;99.90;;;;;;5081562;28;20036;-65
2022/07/05 03:06:46;;;;;;;10.63;7.10;;;11.70;99.90;;;;;;5084756;28;20041;-65
2022/07/05 03:09:12;;;;;;;7.70;5.82;;;11.60;99.90;;;;;;5062472;28;20039;-65
2022/07/05 03:11:38;;;;;;;8.88;6.22;;;11.60;99.90;;;;;;5067984;28;20089;-65
2022/07/05 03:14:03;;;;;;;7.68;5.88;;;11.60;99.90;;;;;;5083505;28;20107;-65
2022/07/05 03:16:29;;;;;;;8.45;6.63;;;11.70;99.90;;;;;;5084140;28;20394;-65
2022/07/05 03:18:55;;;;;;;9.68;6.15;;;11.70;99.90;;;;;;5083351;28;20054;-65
2022/07/05 03:21:22;;;;;;;11.45;5.95;;;11.80;99.90;;;;;;5065959;28;20123;-65
2022/07/05 03:23:47;;;;;;;7.90;5.65;;;11.80;99.90;;;;;;5067272;28;20028;-65
2022/07/05 03:26:13;;;;;;;7.50;6.28;;;11.80;99.90;;;;;;5087121;28;20100;-65
2022/07/05 03:28:39;;;;;;;8.05;5.65;;;11.80;99.90;;;;;;5083162;28;20131;-65
2022/07/05 03:31:04;;;;;;;7.40;5.50;;;11.70;99.90;;;;;;5068388;28;20043;-65
2022/07/05 03:33:30;;;;;;;9.90;5.82;;;11.60;99.90;;;;;;5065908;28;20079;-65
2022/07/05 03:35:56;;;;;;;10.57;6.15;;;11.60;99.90;;;;;;5064996;28;20374;-65
2022/07/05 03:38:21;;;;;;;8.23;6.82;;;11.60;99.90;;;;;;5081476;28;20066;-65
2022/07/05 03:40:47;;;;;;;11.95;9.02;;;11.60;99.90;;;;;;5066480;28;20040;-65
2022/07/05 03:43:13;;;;;;;11.13;9.93;;;11.60;99.90;;;;;;5083481;28;20119;-65
2022/07/05 03:45:38;;;;;;;10.32;9.20;;;12.20;99.90;;;;;;5083597;28;20047;-65
2022/07/05 03:48:04;;;;;;;10.27;8.57;;;11.80;99.90;;;;;;5087805;28;20044;-65
2022/07/05 03:50:30;;;;;;;9.15;8.20;;;11.90;99.90;;;;;;5082237;28;20044;-65
2022/07/05 03:52:55;;;;;;;8.75;7.25;;;11.90;99.90;;;;;;5083932;28;20051;-64
2022/07/05 03:55:21;;;;;;;11.27;8.20;;;11.90;99.90;;;;;;5082268;28;20548;-65
2022/07/05 03:57:47;;;;;;;13.48;8.55;;;12.00;99.90;;;;;;5066799;28;20050;-65
2022/07/05 04:00:14;;;;;;;9.10;8.20;;;12.00;99.90;;;;;;5081625;28;20036;-65
2022/07/05 04:02:40;;;;;;;10.57;7.32;;;12.20;99.90;;;;;;5082564;28;20066;-65
2022/07/05 04:05:06;;;;;;;7.65;6.30;;;12.10;99.90;;;;;;5065813;28;20064;-65
2022/07/05 04:07:32;;;;;;;8.80;6.03;;;12.20;99.90;;;;;;5084308;28;20135;-66
2022/07/05 04:09:59;;;;;;;5.97;5.38;;;12.20;99.90;;;;;;5063464;28;20462;-65
2022/07/05 04:12:25;;;;;;;6.22;5.15;;;12.30;99.90;;;;;;5082387;28;20028;-65
2022/07/05 04:14:50;;;;;;;6.85;5.93;;;12.50;99.90;;;;;;5067093;28;20039;-65
2022/07/05 04:17:16;;;;;;;7.32;6.20;;;12.60;99.90;;;;;;5069492;28;20037;-65
2022/07/05 04:19:42;;;;;;;9.23;5.60;;;12.70;99.90;;;;;;5084539;28;20142;-65
2022/07/05 04:22:08;;;;;;;6.38;4.78;;;12.80;99.90;;;;;;5069193;28;20047;-65
2022/07/05 04:25:16;;;;;;;5.30;4.47;;;13.00;99.90;;;;;;5084040;28;20051;-65
2022/07/05 04:27:22;;;;;;;7.25;6.40;;;13.20;99.90;;;;;;5067041;28;20048;-65
2022/07/05 04:29:47;;;;;;;5.88;5.30;;;13.50;99.90;;;;;;5069348;28;20489;-65
2022/07/05 04:32:13;;;;;;;5.40;4.85;;;14.40;99.90;;;;;;5066708;28;20039;-65
2022/07/05 04:34:38;;;;;;;3.97;3.58;;;15.70;99.90;;;;;;5081774;28;20143;-65
2022/07/05 04:37:04;;;;;;;3.90;3.30;;;17.00;99.90;;;;;;5086537;28;20051;-65
2022/07/05 04:39:30;;;;;;;4.72;3.55;;;18.20;99.90;;;;;;5087757;28;20028;-65
2022/07/05 04:41:55;;;;;;;5.03;3.45;;;19.30;99.90;;;;;;5069751;28;20521;-65
2022/07/05 04:44:21;;;;;;;6.15;3.45;;;19.90;99.90;;;;;;5063010;28;20040;-65
2022/07/05 04:46:46;;;;;;;4.70;2.70;;;20.80;99.90;;;;;;5082271;28;20039;-65
2022/07/05 04:49:12;;;;;;;4.13;2.90;;;21.70;99.90;;;;;;5077607;28;20044;-65
2022/07/05 04:51:38;;;;;;;4.45;2.92;;;22.50;99.90;;;;;;5086432;28;20028;-65
2022/07/05 04:54:03;;;;;;;7.47;2.70;;;23.40;99.90;;;;;;5067387;28;20059;-65
2022/07/05 04:56:29;;;;;;;4.65;3.08;;;24.00;99.90;;;;;;5079812;28;20032;-65
2022/07/05 04:58:54;;;;;;;3.67;2.90;;;24.70;99.90;;;;;;5085096;28;20165;-65
2022/07/05 05:01:20;;;;;;;3.53;2.80;;;25.10;99.90;;;;;;5078762;28;20071;-65
2022/07/05 05:03:46;;;;;;;3.55;2.70;;;25.40;99.90;;;;;;5066865;28;20055;-65
2022/07/05 05:06:13;;;;;;;3.03;2.80;;;26.00;99.90;;;;;;5066646;28;20039;-65
2022/07/05 05:08:41;;;;;;;5.82;3.53;;;26.30;99.90;;;;;;5064598;28;20078;-65
2022/07/05 05:11:07;;;;;;;4.78;3.58;;;26.40;99.90;;;;;;5068556;28;20040;-65
2022/07/05 05:13:33;;;;;;;5.85;3.90;;;25.90;99.90;;;;;;5066132;28;20088;-65
2022/07/05 05:15:59;;;;;;;4.60;3.38;;;25.40;99.90;;;;;;5066377;28;20044;-65
2022/07/05 05:18:26;;;;;;;5.10;3.28;;;24.50;99.90;;;;;;5068242;28;20047;-65
2022/07/05 05:20:54;;;;;;;5.90;3.58;;;25.10;99.90;;;;;;5087071;28;20036;-65
2022/07/05 05:23:22;;;;;;;4.97;3.28;;;26.20;99.90;;;;;;5067618;28;20050;-65
2022/07/05 05:25:48;;;;;;;8.02;3.45;;;27.00;99.90;;;;;;5084249;28;20047;-65
2022/07/05 05:28:13;;;;;;;3.80;3.40;;;28.00;99.90;;;;;;5085097;28;20040;-65
2022/07/05 05:30:39;;;;;;;5.40;3.40;;;28.60;99.50;;;;;;5067190;28;20471;-65
2022/07/05 05:33:05;;;;;;;3.60;2.80;;;28.10;98.80;;;;;;5064626;28;20036;-65
2022/07/05 05:35:30;;;;;;;4.10;3.20;;;27.40;99.00;;;;;;5080987;28;20119;-65
2022/07/05 05:37:56;;;;;;;3.97;2.22;;;26.50;99.40;;;;;;5082751;28;20044;-65
2022/07/05 05:40:24;;;;;;;7.05;2.78;;;25.90;99.90;;;;;;5069091;28;20040;-65
2022/07/05 05:42:51;;;;;;;7.07;2.85;;;25.50;99.90;;;;;;5089270;28;20179;-65
2022/07/05 05:45:17;;;;;;;7.15;3.60;;;25.30;99.90;;;;;;5057726;28;20486;-65
2022/07/05 05:47:51;;;;;;;3.33;2.72;;;25.10;99.90;;;;;;5081523;28;20075;-65
2022/07/05 05:50:31;;;;;;;2.67;1.80;;;24.90;99.90;;;;;;5063843;28;20031;-65
2022/07/05 05:52:57;;;;;;;4.50;2.30;;;24.80;99.90;;;;;;5064094;28;20059;-65
2022/07/05 05:55:24;;;;;;;3.97;2.38;;;24.70;99.90;;;;;;5062084;28;20452;-67
2022/07/05 05:57:50;;;;;;;2.83;2.22;;;24.50;99.90;;;;;;5067898;28;20069;-65
2022/07/05 06:00:17;;;;;;;3.70;2.25;;;24.40;99.90;;;;;;5065402;28;20047;-65
2022/07/05 06:02:44;;;;;;;5.78;2.42;;;24.30;99.90;;;;;;5059602;28;20650;-65
2022/07/05 06:05:11;;;;;;;9.38;2.60;;;24.10;99.90;;;;;;5074725;28;20043;-65
2022/07/05 06:07:51;;;;;;;3.13;1.58;;;24.10;99.90;;;;;;5059755;28;20040;-65
2022/07/05 06:10:19;;;;;;;8.35;1.70;;;24.10;99.90;;;;;;5065202;28;20047;-64
2022/07/05 06:12:44;;;;;;;5.45;1.10;;;24.10;99.90;;;;;;5077539;28;20086;-65
2022/07/05 06:15:10;;;;;;;1.83;1.00;;;24.10;99.90;;;;;;5058745;28;20685;-65
2022/07/05 06:17:37;;;;;;;3.35;1.10;;;24.10;99.90;;;;;;5074320;28;20040;-65
2022/07/05 06:20:11;;;;;;;2.78;1.40;;;24.20;99.90;;;;;;5066352;28;20050;-65
2022/07/05 06:22:38;;;;;;;3.42;0.70;;;24.20;99.90;;;;;;5083373;28;20047;-65
2022/07/05 06:25:04;;;;;;;3.10;0.50;;;24.30;99.90;;;;;;5082131;28;20123;-63
2022/07/05 06:27:30;;;;;;;3.22;0.60;;;24.50;99.90;;;;;;5069120;28;20040;-65
2022/07/05 06:29:56;;;;;;;3.80;0.75;;;24.60;99.90;;;;;;5071638;28;20059;-65
2022/07/05 06:32:22;;;;;;;4.45;1.23;;;24.60;99.90;;;;;;5086664;28;20030;-65
2022/07/05 06:34:47;;;;;;;2.85;0.60;;;24.50;99.90;;;;;;5069323;28;20508;-65
2022/07/05 06:37:13;;;;;;;3.03;0.55;;;24.60;99.90;;;;;;5071369;28;20550;-65
2022/07/05 06:39:39;;;;;;;3.08;0.85;;;24.70;99.90;;;;;;5069319;28;20040;-65
2022/07/05 06:42:04;;;;;;;4.35;0.52;;;24.70;99.90;;;;;;5087049;28;20071;-65
2022/07/05 06:44:30;;;;;;;3.08;0.90;;;24.30;99.90;;;;;;5084530;28;20119;-64
2022/07/05 06:46:56;;;;;;;1.30;0.30;;;24.10;99.90;;;;;;5085325;28;20102;-65
2022/07/05 06:49:21;;;;;;;8.70;1.05;;;23.80;99.90;;;;;;5086870;28;20074;-65
2022/07/05 06:51:47;;;;;;;4.22;0.65;;;23.60;99.90;;;;;;5075750;28;20032;-65
2022/07/05 06:54:12;;;;;;;3.15;0.55;;;23.50;99.90;;;;;;5069167;28;20038;-65
2022/07/05 06:56:38;;;;;;;0.70;0.22;;;23.70;99.90;;;;;;5082059;28;20478;-65
2022/07/05 06:59:04;;;;;;;1.55;0.40;;;23.90;99.90;;;;;;5082595;28;20486;-65
2022/07/05 07:01:29;;;;;;;2.13;0.40;;;24.20;99.90;;;;;;5086025;28;20040;-65
2022/07/05 07:03:55;;;;;;;7.22;0.80;;;24.30;99.90;;;;;;5084294;28;20401;-65
2022/07/05 07:06:20;;;;;;;3.78;0.60;;;24.40;99.90;;;;;;5083368;28;20089;-65
2022/07/05 07:11:31;;;;;;;2.50;0.80;;;24.60;99.90;;;;;;5085012;28;20044;-65
2022/07/05 07:13:57;;;;;;;2.28;0.50;;;24.60;99.90;;;;;;5084710;28;20367;-65
2022/07/05 07:16:23;;;;;;;3.03;0.63;;;24.70;99.70;;;;;;5084264;28;20028;-65
2022/07/05 07:18:48;;;;;;;3.72;0.40;;;24.70;99.90;;;;;;5083362;28;21756;-65
2022/07/05 07:21:14;;;;;;;1.42;0.40;;;24.80;99.90;;;;;;5069088;28;20066;-65
2022/07/05 07:23:39;;;;;;;2.38;0.50;;;24.60;99.90;;;;;;5066610;28;20040;-65
2022/07/05 07:26:05;;;;;;;6.95;0.60;;;24.50;99.90;;;;;;5075513;28;20504;-65
2022/07/05 07:28:31;;;;;;;3.58;0.60;;;24.60;99.90;;;;;;5079731;28;20048;-65
2022/07/05 07:30:56;;;;;;;3.10;0.60;;;24.50;99.90;;;;;;5081021;28;20031;-65
2022/07/05 07:33:22;;;;;;;3.28;0.50;;;24.60;99.90;;;;;;5087721;28;20032;-65
2022/07/05 07:35:48;;;;;;;2.22;0.40;;;24.40;99.90;;;;;;5086641;28;20036;-65
2022/07/05 07:38:13;;;;;;;4.68;0.60;;;24.10;99.90;;;;;;5066112;28;20044;-65
2022/07/05 07:40:39;;;;;;;2.63;0.40;;;23.90;99.90;;;;;;5082405;28;20040;-65
2022/07/05 07:43:04;;;;;;;2.58;0.68;;;23.60;99.90;;;;;;5069034;28;20062;-65
2022/07/05 07:45:31;;;;;;;6.05;0.70;;;23.20;99.90;;;;;;5067588;28;20482;-65
2022/07/05 07:47:57;;;;;;;1.90;0.50;;;22.90;99.90;;;;;;5083921;28;20079;-65
2022/07/05 07:50:22;;;;;;;3.45;0.47;;;22.60;99.90;;;;;;5078785;28;20085;-65
2022/07/05 07:52:48;;;;;;;4.95;0.52;;;22.30;99.90;;;;;;5064563;28;20078;-64
2022/07/05 07:55:15;;;;;;;2.55;0.70;;;22.10;99.90;;;;;;5083717;28;20088;-65
2022/07/05 07:57:41;;;;;;;3.40;0.90;;;22.00;99.90;;;;;;5070301;28;20107;-65
2022/07/05 08:00:07;;;;;;;4.28;0.30;;;21.90;99.90;;;;;;5067314;28;20740;-64
2022/07/05 08:02:33;;;;;;;3.42;0.60;;;21.80;99.90;;;;;;5083741;28;20081;-64
2022/07/05 08:04:58;;;;;;;2.58;0.40;;;21.60;99.90;;;;;;5069762;28;20044;-64
2022/07/05 08:07:25;;;;;;;3.70;1.15;;;21.80;99.90;;;;;;5085575;28;20064;-64
2022/07/05 08:09:52;;;;;;;3.50;0.30;;;22.10;99.90;;;;;;5069790;28;20035;-65
2022/07/05 08:12:18;;;;;;;6.82;0.55;;;22.60;99.90;;;;;;5066234;28;20044;-65
2022/07/05 08:14:44;;;;;;;1.63;0.32;;;23.10;99.90;;;;;;5073274;28;20040;-65
2022/07/05 08:17:10;;;;;;;2.80;0.43;;;23.50;99.90;;;;;;5084666;28;20044;-65
2022/07/05 08:22:21;;;;;;;3.33;0.87;;;24.00;98.20;;;;;;5082037;28;20454;-65
2022/07/05 08:24:46;;;;;;;2.90;0.30;;;24.20;98.70;;;;;;5084383;28;20036;-65
2022/07/05 08:27:12;;;;;;;2.25;0.45;;;24.00;98.00;;;;;;5065164;28;20479;-65
2022/07/05 08:29:38;;;;;;;2.85;0.50;;;23.80;98.30;;;;;;5085137;28;20088;-65
2022/07/05 08:32:05;;;;;;;3.15;0.50;;;23.50;98.70;;;;;;5065348;28;20554;-65
2022/07/05 08:34:30;;;;;;;1.05;0.30;;;23.00;98.80;;;;;;5064679;28;20497;-65
2022/07/05 08:36:56;;;;;;;3.08;0.52;;;22.80;99.20;;;;;;5069436;28;20044;-65
2022/07/05 08:39:22;;;;;;;4.25;0.57;;;22.90;99.60;;;;;;5064877;28;20487;-65
2022/07/05 08:41:52;;;;;;;2.10;0.40;;;23.20;99.90;;;;;;5066873;28;20036;-65
2022/07/05 08:44:22;;;;;;;1.63;0.65;;;23.50;98.90;;;;;;5066545;28;20035;-65
2022/07/05 08:46:50;;;;;;;3.17;0.60;;;23.80;98.60;;;;;;5072505;28;20040;-65
2022/07/05 08:49:24;;;;;;;3.10;0.55;;;23.80;98.40;;;;;;5067555;28;20044;-65
2022/07/05 08:51:50;;;;;;;4.18;0.50;;;23.60;98.30;;;;;;5066243;28;20055;-65
2022/07/05 08:54:16;;;;;;;4.97;0.30;;;23.20;98.20;;;;;;5063862;28;20054;-65
2022/07/05 08:56:43;;;;;;;2.53;0.40;;;23.20;98.80;;;;;;5083922;28;20117;-65
2022/07/05 08:59:08;;;;;;;3.08;0.40;;;23.30;98.30;;;;;;5069690;28;20525;-65
2022/07/05 09:01:35;;;;;;;2.47;0.40;;;23.50;98.10;;;;;;5082650;28;20128;-65
2022/07/05 09:04:05;;;;;;;6.72;0.75;;;23.50;98.40;;;;;;5063653;28;20573;-65
2022/07/05 09:06:32;;;;;;;12.50;3.30;;;23.30;97.90;;;;;;5066195;28;20035;-65
2022/07/05 09:08:59;;;;;;;5.57;1.85;;;23.00;98.40;;;;;;5080256;28;20055;-65
2022/07/05 09:11:33;;;;;;;6.72;1.00;;;22.60;98.80;;;;;;5085585;28;20097;-65
2022/07/05 09:13:59;;;;;;;2.65;0.40;;;22.60;98.90;;;;;;5049475;28;20040;-65
2022/07/05 09:16:25;;;;;;;2.67;0.30;;;22.90;98.80;;;;;;5082819;28;20044;-65
2022/07/05 09:18:56;;;;;;;2.47;0.30;;;23.00;99.00;;;;;;5085621;28;20040;-65
2022/07/05 09:21:27;;;;;;;2.30;0.32;;;22.90;98.70;;;;;;5082502;28;20044;-65
2022/07/05 09:23:58;;;;;;;2.30;0.55;;;22.80;99.20;;;;;;5069632;28;20390;-65
2022/07/05 09:26:40;;;;;;;4.13;0.40;;;22.70;99.70;;;;;;5082358;28;20029;-65
2022/07/05 09:29:13;;;;;;;2.75;0.35;;;22.70;99.90;;;;;;5083427;28;20075;-65
2022/07/05 09:31:41;;;;;;;3.20;0.52;;;23.30;99.90;;;;;;5070099;28;20525;-64
2022/07/05 09:34:12;;;;;;;2.22;0.32;;;23.70;99.90;;;;;;5081589;28;20043;-65
2022/07/05 09:37:01;;;;;;;2.75;0.40;;;24.00;99.20;;;;;;5064581;28;20080;-65
2022/07/05 09:39:30;;;;;;;2.78;0.40;;;24.30;97.60;;;;;;5085522;28;20111;-64
2022/07/05 09:42:13;;;;;;;2.22;0.32;;;24.20;97.50;;;;;;5083269;28;20055;-65
2022/07/05 09:44:46;;;;;;;5.25;0.57;;;24.50;98.00;;;;;;5064880;28;20031;-65
2022/07/05 09:47:14;;;;;;;1.27;0.40;;;24.30;96.80;;;;;;5081779;28;20045;-65
2022/07/05 09:50:06;;;;;;;3.17;0.52;;;24.10;96.40;;;;;;5081915;28;20039;-65
2022/07/05 09:52:36;;;;;;;2.92;0.40;;;23.70;96.80;;;;;;5082925;28;20481;-65
2022/07/05 09:55:09;;;;;;;5.50;0.70;;;23.60;97.50;;;;;;5063657;28;20044;-65
2022/07/05 09:57:36;;;;;;;3.65;0.75;;;23.50;97.70;;;;;;5064410;28;20101;-65
2022/07/05 10:00:09;;;;;;;3.30;0.35;;;23.30;97.80;;;;;;5067679;28;20040;-65
2022/07/05 10:02:48;;;;;;;2.47;0.40;;;23.00;97.80;;;;;;5087375;28;20149;-65
2022/07/05 10:05:24;;;;;;;2.47;0.32;;;22.80;98.80;;;;;;5083437;28;20149;-65
2022/07/05 10:08:00;;;;;;;2.05;0.40;;;22.40;98.70;;;;;;5066624;28;20041;-65
2022/07/05 10:10:30;;;;;;;3.25;0.43;;;22.20;99.10;;;;;;5067789;28;20827;-65
2022/07/05 10:12:57;;;;;;;2.33;0.60;;;22.00;99.90;;;;;;5079066;28;20025;-65
2022/07/05 10:15:26;;;;;;;7.32;1.27;;;22.30;99.90;;;;;;5085236;28;21001;-65
2022/07/05 10:17:58;;;;;;;5.18;1.20;;;22.40;99.90;;;;;;5080224;28;20117;-65
2022/07/05 10:20:34;;;;;;;4.07;0.90;;;22.60;99.90;;;;;;5064534;28;20041;-65
2022/07/05 10:23:05;;;;;;;3.13;0.50;;;22.50;99.90;;;;;;5078343;28;20048;-65
2022/07/05 10:25:31;;;;;;;3.95;0.50;;;22.40;99.90;;;;;;5083051;28;20456;-65
2022/07/05 10:27:58;;;;;;;3.20;1.27;;;22.10;99.60;;;;;;5067359;28;20036;-65
2022/07/05 10:30:24;;;;;;;6.63;0.65;;;21.90;99.90;;;;;;5078659;28;20047;-65
2022/07/05 10:32:51;;;;;;;2.95;0.50;;;21.70;99.90;;;;;;5083468;28;20047;-65
2022/07/05 10:35:17;;;;;;;2.95;0.88;;;21.60;99.90;;;;;;5082330;28;20029;-65
2022/07/05 10:37:45;;;;;;;2.88;1.13;;;21.50;99.90;;;;;;5071100;28;20083;-65
2022/07/05 10:40:13;;;;;;;3.47;0.85;;;21.60;99.90;;;;;;5074268;28;20043;-65
2022/07/05 10:42:48;;;;;;;2.80;0.68;;;21.90;99.90;;;;;;5081536;28;20096;-65
2022/07/05 10:45:32;;;;;;;;;;;22.10;99.90;;;;;;5065359;28;20032;-65
2022/07/05 10:48:17;;;;;;;3.40;0.77;;;22.00;99.90;;;;;;5078760;28;20455;-65
2022/07/05 10:50:46;;;;;;;1.55;0.40;;;21.80;99.90;;;;;;5052772;28;20083;-65
2022/07/05 10:53:12;;;;;;;4.57;0.75;;;21.50;99.20;;;;;;5063345;28;20051;-65
2022/07/05 10:56:11;;;;;;;3.58;0.57;;;21.30;99.90;;;;;;5065149;28;20675;-65
2022/07/05 10:58:44;;;;;;;3.03;0.60;;;21.10;99.90;;;;;;5062473;28;20063;-65
2022/07/05 11:01:19;;;;;;;2.15;0.55;;;20.80;99.90;;;;;;5080450;28;20107;-65
2022/07/05 11:03:46;;;;;;;4.67;0.80;;;20.70;99.90;;;;;;5064092;28;20551;-65
2022/07/05 11:06:29;;;;;;;4.32;0.70;;;20.80;99.90;;;;;;5082248;28;20298;-65
2022/07/05 11:08:57;;;;;;;3.05;0.60;;;20.90;99.90;;;;;;5081485;28;20079;-65
2022/07/05 11:11:28;;;;;;;4.05;0.80;;;20.90;99.90;;;;;;5062663;28;20040;-65
2022/07/05 11:13:54;;;;;;;0.98;0.40;;;20.90;99.90;;;;;;5070590;28;20374;-65
2022/07/05 11:16:21;;;;;;;2.13;0.88;;;21.00;99.90;;;;;;5072366;28;20054;-64
2022/07/05 11:18:49;;;;;;;5.10;0.52;;;21.10;99.90;;;;;;5088249;28;20481;-64
2022/07/05 11:21:20;;;;;;;6.05;0.60;;;21.30;99.90;;;;;;5067848;28;20654;-64
2022/07/05 11:23:46;;;;;;;3.58;0.70;;;21.50;99.90;;;;;;5067445;28;20090;-64
2022/07/05 11:26:13;;;;;;;3.83;0.60;;;21.90;99.90;;;;;;5086557;28;20039;-65
2022/07/05 11:28:45;;;;;;;4.97;0.80;;;22.10;99.90;;;;;;5068238;28;20184;-65
2022/07/05 11:31:11;;;;;;;2.33;0.45;;;22.50;99.90;;;;;;5088116;28;20135;-65
2022/07/05 11:33:44;;;;;;;3.97;0.50;;;22.70;99.90;;;;;;5066260;28;20489;-65
2022/07/05 11:36:30;;;;;;;1.85;0.30;;;22.40;99.50;;;;;;5087020;28;20077;-64
2022/07/05 11:39:16;;;;;;;4.60;0.60;;;22.30;99.70;;;;;;5083006;28;20044;-65
2022/07/05 11:41:47;;;;;;;1.77;0.50;;;22.00;99.00;;;;;;5069128;28;20056;-65
2022/07/05 11:44:14;;;;;;;5.25;0.50;;;21.80;98.80;;;;;;5064520;28;20040;-65
2022/07/05 11:46:42;;;;;;;3.58;0.30;;;21.70;99.40;;;;;;5065527;28;20489;-65
2022/07/05 11:49:07;;;;;;;3.00;0.70;;;21.90;99.90;;;;;;5066825;28;20032;-65
2022/07/05 11:51:33;;;;;;;2.63;0.47;;;22.20;99.90;;;;;;5069091;28;20039;-65
2022/07/05 11:54:01;;;;;;;1.85;0.40;;;22.50;98.70;;;;;;5064164;28;20051;-65
2022/07/05 11:56:27;;;;;;;3.30;0.52;;;22.90;99.00;;;;;;5065422;28;20040;-64
2022/07/05 11:58:53;;;;;;;1.63;0.32;;;23.10;97.90;;;;;;5081838;28;20035;-65
2022/07/05 12:01:18;;;;;;;1.13;0.40;;;23.20;96.30;;;;;;5066075;28;20044;-64
2022/07/05 12:03:55;;;;;;;1.67;0.30;;;23.40;97.40;;;;;;5084223;28;20039;-65
2022/07/05 12:06:23;;;;;;;3.58;0.30;;;23.60;96.50;;;;;;5085264;28;20478;-65
2022/07/05 12:09:01;;;;;;;4.60;0.35;;;23.50;96.70;;;;;;5069065;28;20044;-64
2022/07/05 12:14:20;;;;;;;2.22;0.50;;;23.50;95.60;;;;;;5086381;28;20040;-64
2022/07/05 12:16:45;;;;;;;3.25;0.43;;;23.70;94.40;;;;;;5066461;28;20054;-64
2022/07/05 12:19:11;;;;;;;0.85;0.25;;;23.80;95.70;;;;;;5085995;28;20040;-64
2022/07/05 12:21:37;;;;;;;1.58;0.32;;;23.90;95.90;;;;;;5071823;28;20074;-65
2022/07/05 12:24:03;;;;;;;1.40;0.30;;;23.90;96.70;;;;;;5069579;28;20052;-65
2022/07/05 12:26:29;;;;;;;2.88;0.73;;;23.90;96.70;;;;;;5083558;28;20504;-65
2022/07/05 12:28:55;;;;;;;2.85;0.40;;;24.20;97.10;;;;;;5065582;28;20048;-65
2022/07/05 12:31:23;;;;;;;1.38;0.30;;;24.30;96.80;;;;;;5083248;28;20413;-64
2022/07/05 12:33:50;;;;;;;1.83;0.32;;;24.30;96.50;;;;;;5068898;28;20036;-65
2022/07/05 12:36:19;;;;;;;5.13;0.75;;;24.20;96.90;;;;;;5067656;28;20105;-65
2022/07/05 12:38:44;;;;;;;2.33;0.68;;;23.80;97.50;;;;;;5067161;28;20477;-65
2022/07/05 12:41:10;;;;;;;2.05;0.80;;;23.50;98.20;;;;;;5087298;28;20043;-65
2022/07/05 12:43:54;;;;;;;2.22;0.30;;;23.60;99.00;;;;;;5074624;28;20048;-65
2022/07/05 12:46:34;;;;;;;1.75;0.30;;;23.70;99.20;;;;;;5083639;28;20098;-65
2022/07/05 12:49:00;;;;;;;2.95;0.38;;;23.80;98.00;;;;;;5068980;28;20047;-65
2022/07/05 12:51:34;;;;;;;5.07;1.20;;;23.90;98.30;;;;;;5083056;28;20040;-65
2022/07/05 12:59:38;;;;;;;3.22;0.90;;;24.30;97.70;;;;;;5079955;28;20035;-65
2022/07/05 13:02:04;;;;;;;3.50;0.38;;;24.20;98.10;;;;;;5084029;28;20039;-65